Irvington, NY (10533)

9:28 AM EDT on September 29, 2016 (GMT -0400)
Tarryhill | | Change Station

Elev 323 ft 41.05 °N, 73.85 °W | Updated 8 minutes ago

Mostly Cloudy
Mostly Cloudy
58.1 °F
Feels Like 58.1 °F
N
1.0
Wind Variable Wind from NW
Gusts 7.0 mph

Today
High -- | Low -- °F
--% Chance of Precip.
Yesterday
High -- | Low -- °F
Precip. -- in
Pressure 30.35 in
Visibility 10.0 miles
Clouds Scattered Clouds 2000 ft
Mostly Cloudy 3500 ft
Dew Point 52 °F
Humidity 80%
Rainfall 0.00 in
Snow Depth Not available.
6:50 AM 6:39 PM
Waning Crescent, 2% visible
METAR KHPN 291256Z 06014G21KT 10SM SCT020 BKN035 14/09 A3035 RMK AO2 SLP277 T01440094 $
Pressure 30.35 in
Visibility 10.0 miles
Clouds Scattered Clouds 2000 ft
Mostly Cloudy 3500 ft
Dew Point 52 °F
Humidity 80%
Rainfall 0.00 in
Snow Depth Not available.
6:50 AM 6:39 PM
Waning Crescent, 2% visible
METAR KHPN 291256Z 06014G21KT 10SM SCT020 BKN035 14/09 A3035 RMK AO2 SLP277 T01440094 $

10-Day Weather Forecast

Almanac

Astronomy

Sep. 29, 2016 Rise Set
Actual Time
Civil Twilight
Nautical Twilight
Astronomical Twilight
Moon
Length of Visible Light
Length of Day
Tomorrow will be .
, % of the Moon is Illuminated

Today's Extremes

State Highs State Lows

Community

WunderPhotos

Upload Photos

1,942,470 photos uploaded!

WunderBlog® & News

Nearby

Air Quality

  Air Quality AQ Index Pollutant
Not available.

Snow Depth

Station Depth Elevation

Earthquake Activity

City Distance Mag. Time & Date
Minimum magnitude displayed is 2.5.

Coastal Water Temperatures

Place Temperature

Stations

Nearby Weather Stations

Station Location Temp. Windchill Dew Point Humidity Wind Precip. Elev Updated Type
                   

Watches & Warnings

There are currently no watches in effect.